sensor_id;sensor_type;location;lat;lon;timestamp;P1;durP1;ratioP1;P2;durP2;ratioP2
44480;SDS011;30184;42.018;23.670;2022-08-01T00:00:07;17.00;;;12.60;;
44480;SDS011;30184;42.018;23.670;2022-08-01T00:06:10;19.33;;;13.38;;
44480;SDS011;30184;42.018;23.670;2022-08-01T00:08:39;16.15;;;12.50;;
44480;SDS011;30184;42.018;23.670;2022-08-01T00:11:18;20.73;;;13.98;;
44480;SDS011;30184;42.018;23.670;2022-08-01T00:14:22;16.67;;;12.45;;
44480;SDS011;30184;42.018;23.670;2022-08-01T00:19:56;15.10;;;13.18;;
44480;SDS011;30184;42.018;23.670;2022-08-01T00:22:25;16.95;;;11.82;;
44480;SDS011;30184;42.018;23.670;2022-08-01T00:24:55;17.17;;;12.52;;
44480;SDS011;30184;42.018;23.670;2022-08-01T00:27:28;17.35;;;12.48;;
44480;SDS011;30184;42.018;23.670;2022-08-01T00:30:00;17.85;;;13.30;;
44480;SDS011;30184;42.018;23.670;2022-08-01T00:32:31;16.60;;;13.70;;
44480;SDS011;30184;42.018;23.670;2022-08-01T00:35:01;15.90;;;12.65;;
44480;SDS011;30184;42.018;23.670;2022-08-01T00:37:30;19.77;;;13.55;;
44480;SDS011;30184;42.018;23.670;2022-08-01T00:39:59;16.13;;;12.55;;
44480;SDS011;30184;42.018;23.670;2022-08-01T00:42:30;17.23;;;13.45;;
44480;SDS011;30184;42.018;23.670;2022-08-01T00:45:00;15.90;;;13.00;;
44480;SDS011;30184;42.018;23.670;2022-08-01T00:47:29;19.15;;;15.52;;
44480;SDS011;30184;42.018;23.670;2022-08-01T00:49:59;18.52;;;15.38;;
44480;SDS011;30184;42.018;23.670;2022-08-01T00:52:28;17.45;;;14.52;;
44480;SDS011;30184;42.018;23.670;2022-08-01T00:54:57;19.42;;;12.45;;
44480;SDS011;30184;42.018;23.670;2022-08-01T00:57:27;20.38;;;14.25;;
44480;SDS011;30184;42.018;23.670;2022-08-01T00:59:58;16.70;;;12.82;;
44480;SDS011;30184;42.018;23.670;2022-08-01T01:02:28;17.13;;;14.38;;
44480;SDS011;30184;42.018;23.670;2022-08-01T01:05:00;16.80;;;13.27;;
44480;SDS011;30184;42.018;23.670;2022-08-01T01:07:32;20.35;;;14.80;;
44480;SDS011;30184;42.018;23.670;2022-08-01T01:10:06;18.02;;;15.18;;
44480;SDS011;30184;42.018;23.670;2022-08-01T01:12:42;18.30;;;15.32;;
44480;SDS011;30184;42.018;23.670;2022-08-01T01:15:18;21.55;;;14.65;;
44480;SDS011;30184;42.018;23.670;2022-08-01T01:17:55;19.33;;;15.35;;
44480;SDS011;30184;42.018;23.670;2022-08-01T01:20:30;19.73;;;15.02;;
44480;SDS011;30184;42.018;23.670;2022-08-01T01:23:12;20.35;;;15.98;;
44480;SDS011;30184;42.018;23.670;2022-08-01T01:25:59;19.17;;;14.88;;
44480;SDS011;30184;42.018;23.670;2022-08-01T01:31:33;17.58;;;14.55;;
44480;SDS011;30184;42.018;23.670;2022-08-01T01:34:09;18.25;;;14.57;;
44480;SDS011;30184;42.018;23.670;2022-08-01T01:36:41;20.48;;;15.75;;
44480;SDS011;30184;42.018;23.670;2022-08-01T01:39:13;20.00;;;15.65;;
44480;SDS011;30184;42.018;23.670;2022-08-01T01:41:44;18.83;;;15.55;;
44480;SDS011;30184;42.018;23.670;2022-08-01T01:44:17;21.88;;;16.85;;
44480;SDS011;30184;42.018;23.670;2022-08-01T01:46:47;22.10;;;15.48;;
44480;SDS011;30184;42.018;23.670;2022-08-01T01:49:19;21.52;;;15.40;;
44480;SDS011;30184;42.018;23.670;2022-08-01T01:51:52;18.67;;;15.70;;
44480;SDS011;30184;42.018;23.670;2022-08-01T01:54:30;19.17;;;15.55;;
44480;SDS011;30184;42.018;23.670;2022-08-01T01:57:03;18.40;;;15.10;;
44480;SDS011;30184;42.018;23.670;2022-08-01T01:59:37;20.02;;;15.25;;
44480;SDS011;30184;42.018;23.670;2022-08-01T02:02:08;18.90;;;15.27;;
44480;SDS011;30184;42.018;23.670;2022-08-01T02:04:39;19.08;;;15.95;;
44480;SDS011;30184;42.018;23.670;2022-08-01T02:07:11;16.60;;;14.68;;
44480;SDS011;30184;42.018;23.670;2022-08-01T02:09:43;21.60;;;16.15;;
44480;SDS011;30184;42.018;23.670;2022-08-01T02:12:14;18.85;;;15.48;;
44480;SDS011;30184;42.018;23.670;2022-08-01T02:14:48;19.83;;;15.88;;
44480;SDS011;30184;42.018;23.670;2022-08-01T02:17:19;20.52;;;15.77;;
44480;SDS011;30184;42.018;23.670;2022-08-01T02:19:51;22.38;;;14.32;;
44480;SDS011;30184;42.018;23.670;2022-08-01T02:22:24;20.38;;;15.75;;
44480;SDS011;30184;42.018;23.670;2022-08-01T02:24:59;20.60;;;14.60;;
44480;SDS011;30184;42.018;23.670;2022-08-01T02:27:33;22.80;;;15.82;;
44480;SDS011;30184;42.018;23.670;2022-08-01T02:30:08;17.98;;;15.57;;
44480;SDS011;30184;42.018;23.670;2022-08-01T02:32:43;19.48;;;14.68;;
44480;SDS011;30184;42.018;23.670;2022-08-01T02:35:18;19.38;;;14.43;;
44480;SDS011;30184;42.018;23.670;2022-08-01T02:37:51;16.17;;;14.15;;
44480;SDS011;30184;42.018;23.670;2022-08-01T02:40:22;15.65;;;13.82;;
44480;SDS011;30184;42.018;23.670;2022-08-01T02:42:52;18.38;;;13.65;;
44480;SDS011;30184;42.018;23.670;2022-08-01T02:45:26;17.13;;;14.63;;
44480;SDS011;30184;42.018;23.670;2022-08-01T02:47:59;16.77;;;13.60;;
44480;SDS011;30184;42.018;23.670;2022-08-01T02:50:34;18.33;;;13.95;;
44480;SDS011;30184;42.018;23.670;2022-08-01T02:53:06;16.27;;;13.02;;
44480;SDS011;30184;42.018;23.670;2022-08-01T02:55:39;16.17;;;13.90;;
44480;SDS011;30184;42.018;23.670;2022-08-01T02:58:10;18.73;;;14.48;;
44480;SDS011;30184;42.018;23.670;2022-08-01T03:00:44;17.23;;;13.20;;
44480;SDS011;30184;42.018;23.670;2022-08-01T03:03:15;19.67;;;13.05;;
44480;SDS011;30184;42.018;23.670;2022-08-01T03:05:46;26.92;;;21.17;;
44480;SDS011;30184;42.018;23.670;2022-08-01T03:08:17;52.35;;;40.47;;
44480;SDS011;30184;42.018;23.670;2022-08-01T03:10:48;26.48;;;21.48;;
44480;SDS011;30184;42.018;23.670;2022-08-01T03:13:21;35.92;;;25.65;;
44480;SDS011;30184;42.018;23.670;2022-08-01T03:15:53;35.67;;;26.48;;
44480;SDS011;30184;42.018;23.670;2022-08-01T03:18:24;28.08;;;20.98;;
44480;SDS011;30184;42.018;23.670;2022-08-01T03:20:54;17.65;;;15.68;;
44480;SDS011;30184;42.018;23.670;2022-08-01T03:23:26;19.35;;;15.77;;
44480;SDS011;30184;42.018;23.670;2022-08-01T03:25:58;18.77;;;15.73;;
44480;SDS011;30184;42.018;23.670;2022-08-01T03:28:30;20.35;;;16.73;;
44480;SDS011;30184;42.018;23.670;2022-08-01T03:31:01;21.80;;;15.52;;
44480;SDS011;30184;42.018;23.670;2022-08-01T03:33:31;20.73;;;16.38;;
44480;SDS011;30184;42.018;23.670;2022-08-01T03:36:00;19.83;;;15.52;;
44480;SDS011;30184;42.018;23.670;2022-08-01T03:38:33;17.40;;;14.40;;
44480;SDS011;30184;42.018;23.670;2022-08-01T03:41:07;15.50;;;13.07;;
44480;SDS011;30184;42.018;23.670;2022-08-01T03:43:41;17.70;;;12.55;;
44480;SDS011;30184;42.018;23.670;2022-08-01T03:46:17;15.50;;;13.30;;
44480;SDS011;30184;42.018;23.670;2022-08-01T03:48:49;16.92;;;13.90;;
44480;SDS011;30184;42.018;23.670;2022-08-01T03:51:22;19.40;;;14.00;;
44480;SDS011;30184;42.018;23.670;2022-08-01T03:53:54;22.55;;;14.30;;
44480;SDS011;30184;42.018;23.670;2022-08-01T03:56:29;20.30;;;15.40;;
44480;SDS011;30184;42.018;23.670;2022-08-01T03:59:00;19.77;;;15.93;;
44480;SDS011;30184;42.018;23.670;2022-08-01T04:01:32;18.50;;;14.77;;
44480;SDS011;30184;42.018;23.670;2022-08-01T04:04:02;16.15;;;13.38;;
44480;SDS011;30184;42.018;23.670;2022-08-01T04:06:33;26.67;;;12.93;;
44480;SDS011;30184;42.018;23.670;2022-08-01T04:09:06;22.08;;;14.18;;
44480;SDS011;30184;42.018;23.670;2022-08-01T04:11:39;16.95;;;13.55;;
44480;SDS011;30184;42.018;23.670;2022-08-01T04:14:08;17.08;;;13.95;;
44480;SDS011;30184;42.018;23.670;2022-08-01T04:16:39;17.00;;;13.07;;
44480;SDS011;30184;42.018;23.670;2022-08-01T04:19:08;15.05;;;12.25;;
44480;SDS011;30184;42.018;23.670;2022-08-01T04:21:37;16.05;;;12.45;;
44480;SDS011;30184;42.018;23.670;2022-08-01T04:24:08;14.02;;;12.10;;
44480;SDS011;30184;42.018;23.670;2022-08-01T04:26:41;15.10;;;12.07;;
44480;SDS011;30184;42.018;23.670;2022-08-01T04:29:14;16.35;;;13.45;;
44480;SDS011;30184;42.018;23.670;2022-08-01T04:31:48;17.40;;;12.93;;
44480;SDS011;30184;42.018;23.670;2022-08-01T04:34:20;18.17;;;12.43;;
44480;SDS011;30184;42.018;23.670;2022-08-01T04:36:52;27.95;;;22.92;;
44480;SDS011;30184;42.018;23.670;2022-08-01T04:39:24;23.90;;;16.52;;
44480;SDS011;30184;42.018;23.670;2022-08-01T04:41:56;32.10;;;25.73;;
44480;SDS011;30184;42.018;23.670;2022-08-01T04:44:31;26.42;;;19.23;;
44480;SDS011;30184;42.018;23.670;2022-08-01T04:47:05;17.65;;;14.75;;
44480;SDS011;30184;42.018;23.670;2022-08-01T04:49:35;15.52;;;12.10;;
44480;SDS011;30184;42.018;23.670;2022-08-01T04:52:06;14.57;;;11.18;;
44480;SDS011;30184;42.018;23.670;2022-08-01T04:54:37;12.73;;;9.77;;
44480;SDS011;30184;42.018;23.670;2022-08-01T04:57:15;12.32;;;9.02;;
44480;SDS011;30184;42.018;23.670;2022-08-01T04:59:45;11.32;;;9.48;;
44480;SDS011;30184;42.018;23.670;2022-08-01T05:02:18;14.73;;;11.05;;
44480;SDS011;30184;42.018;23.670;2022-08-01T05:04:47;12.70;;;10.02;;
44480;SDS011;30184;42.018;23.670;2022-08-01T05:07:17;39.17;;;21.33;;
44480;SDS011;30184;42.018;23.670;2022-08-01T05:09:47;41.22;;;26.27;;
44480;SDS011;30184;42.018;23.670;2022-08-01T05:12:16;23.40;;;15.55;;
44480;SDS011;30184;42.018;23.670;2022-08-01T05:14:50;12.65;;;8.48;;
44480;SDS011;30184;42.018;23.670;2022-08-01T05:17:21;13.35;;;8.25;;
44480;SDS011;30184;42.018;23.670;2022-08-01T05:19:51;8.90;;;7.53;;
44480;SDS011;30184;42.018;23.670;2022-08-01T05:22:20;11.55;;;8.35;;
44480;SDS011;30184;42.018;23.670;2022-08-01T05:24:55;16.45;;;11.77;;
44480;SDS011;30184;42.018;23.670;2022-08-01T05:27:35;9.70;;;7.97;;
44480;SDS011;30184;42.018;23.670;2022-08-01T05:30:07;10.02;;;7.57;;
44480;SDS011;30184;42.018;23.670;2022-08-01T05:32:40;8.00;;;6.75;;
44480;SDS011;30184;42.018;23.670;2022-08-01T05:35:12;9.77;;;7.72;;
44480;SDS011;30184;42.018;23.670;2022-08-01T05:37:44;13.40;;;8.80;;
44480;SDS011;30184;42.018;23.670;2022-08-01T05:40:14;11.25;;;8.70;;
44480;SDS011;30184;42.018;23.670;2022-08-01T05:42:43;9.10;;;8.13;;
44480;SDS011;30184;42.018;23.670;2022-08-01T05:45:12;15.02;;;7.65;;
44480;SDS011;30184;42.018;23.670;2022-08-01T05:47:47;9.50;;;7.07;;
44480;SDS011;30184;42.018;23.670;2022-08-01T05:50:20;7.72;;;6.32;;
44480;SDS011;30184;42.018;23.670;2022-08-01T05:52:51;13.05;;;6.75;;
44480;SDS011;30184;42.018;23.670;2022-08-01T05:55:26;7.25;;;6.25;;
44480;SDS011;30184;42.018;23.670;2022-08-01T05:58:03;7.00;;;6.28;;
44480;SDS011;30184;42.018;23.670;2022-08-01T06:00:33;9.15;;;7.30;;
44480;SDS011;30184;42.018;23.670;2022-08-01T06:03:06;12.00;;;6.88;;
44480;SDS011;30184;42.018;23.670;2022-08-01T06:05:36;9.45;;;6.57;;
44480;SDS011;30184;42.018;23.670;2022-08-01T06:08:10;10.35;;;6.38;;
44480;SDS011;30184;42.018;23.670;2022-08-01T06:10:39;7.63;;;6.43;;
44480;SDS011;30184;42.018;23.670;2022-08-01T06:13:09;9.82;;;6.78;;
44480;SDS011;30184;42.018;23.670;2022-08-01T06:15:38;13.18;;;6.68;;
44480;SDS011;30184;42.018;23.670;2022-08-01T06:18:09;7.15;;;6.20;;
44480;SDS011;30184;42.018;23.670;2022-08-01T06:20:38;8.63;;;6.30;;
44480;SDS011;30184;42.018;23.670;2022-08-01T06:23:19;12.32;;;6.65;;
44480;SDS011;30184;42.018;23.670;2022-08-01T06:26:05;9.88;;;6.13;;
44480;SDS011;30184;42.018;23.670;2022-08-01T06:28:36;8.98;;;6.50;;
44480;SDS011;30184;42.018;23.670;2022-08-01T06:31:07;12.02;;;5.95;;
44480;SDS011;30184;42.018;23.670;2022-08-01T06:33:39;8.40;;;6.60;;
44480;SDS011;30184;42.018;23.670;2022-08-01T06:36:09;8.02;;;6.18;;
44480;SDS011;30184;42.018;23.670;2022-08-01T06:38:38;13.48;;;6.10;;
44480;SDS011;30184;42.018;23.670;2022-08-01T06:41:08;6.40;;;5.28;;
44480;SDS011;30184;42.018;23.670;2022-08-01T06:43:37;10.13;;;6.00;;
44480;SDS011;30184;42.018;23.670;2022-08-01T06:46:07;13.65;;;6.78;;
44480;SDS011;30184;42.018;23.670;2022-08-01T06:48:36;9.80;;;6.45;;
44480;SDS011;30184;42.018;23.670;2022-08-01T06:51:08;6.65;;;5.85;;
44480;SDS011;30184;42.018;23.670;2022-08-01T06:53:39;7.90;;;5.88;;
44480;SDS011;30184;42.018;23.670;2022-08-01T06:56:14;10.07;;;6.18;;
44480;SDS011;30184;42.018;23.670;2022-08-01T06:58:43;11.30;;;6.25;;
44480;SDS011;30184;42.018;23.670;2022-08-01T07:01:12;9.57;;;6.50;;
44480;SDS011;30184;42.018;23.670;2022-08-01T07:03:41;9.93;;;6.18;;
44480;SDS011;30184;42.018;23.670;2022-08-01T07:06:12;10.80;;;6.15;;
44480;SDS011;30184;42.018;23.670;2022-08-01T07:08:42;9.00;;;6.43;;
44480;SDS011;30184;42.018;23.670;2022-08-01T07:11:11;9.77;;;7.60;;
44480;SDS011;30184;42.018;23.670;2022-08-01T07:13:40;21.30;;;10.05;;
44480;SDS011;30184;42.018;23.670;2022-08-01T07:16:10;11.63;;;7.70;;
44480;SDS011;30184;42.018;23.670;2022-08-01T07:18:40;8.00;;;6.93;;
44480;SDS011;30184;42.018;23.670;2022-08-01T07:21:09;11.80;;;7.15;;
44480;SDS011;30184;42.018;23.670;2022-08-01T07:23:40;10.07;;;7.38;;
44480;SDS011;30184;42.018;23.670;2022-08-01T07:26:09;8.85;;;6.63;;
44480;SDS011;30184;42.018;23.670;2022-08-01T07:28:41;9.18;;;6.32;;
44480;SDS011;30184;42.018;23.670;2022-08-01T07:31:11;7.15;;;5.95;;
44480;SDS011;30184;42.018;23.670;2022-08-01T07:33:40;7.35;;;6.07;;
44480;SDS011;30184;42.018;23.670;2022-08-01T07:36:09;7.60;;;6.10;;
44480;SDS011;30184;42.018;23.670;2022-08-01T07:38:39;6.95;;;5.70;;
44480;SDS011;30184;42.018;23.670;2022-08-01T07:41:09;7.78;;;6.80;;
44480;SDS011;30184;42.018;23.670;2022-08-01T07:43:39;7.60;;;6.60;;
44480;SDS011;30184;42.018;23.670;2022-08-01T07:46:11;7.68;;;6.60;;
44480;SDS011;30184;42.018;23.670;2022-08-01T07:48:41;10.30;;;7.70;;
44480;SDS011;30184;42.018;23.670;2022-08-01T07:51:11;12.18;;;7.00;;
44480;SDS011;30184;42.018;23.670;2022-08-01T07:53:41;8.25;;;7.20;;
44480;SDS011;30184;42.018;23.670;2022-08-01T07:56:11;10.20;;;7.20;;
44480;SDS011;30184;42.018;23.670;2022-08-01T07:58:40;11.23;;;8.38;;
44480;SDS011;30184;42.018;23.670;2022-08-01T08:01:09;7.80;;;6.30;;
44480;SDS011;30184;42.018;23.670;2022-08-01T08:03:39;9.68;;;6.35;;
44480;SDS011;30184;42.018;23.670;2022-08-01T08:06:12;13.32;;;8.88;;
44480;SDS011;30184;42.018;23.670;2022-08-01T08:08:44;8.38;;;6.28;;
44480;SDS011;30184;42.018;23.670;2022-08-01T08:19:12;8.32;;;6.30;;
44480;SDS011;30184;42.018;23.670;2022-08-01T08:21:47;7.30;;;5.90;;
44480;SDS011;30184;42.018;23.670;2022-08-01T08:45:28;6.63;;;4.93;;
44480;SDS011;30184;42.018;23.670;2022-08-01T08:54:43;5.20;;;3.65;;
44480;SDS011;30184;42.018;23.670;2022-08-01T08:57:35;4.47;;;3.83;;
44480;SDS011;30184;42.018;23.670;2022-08-01T09:04:42;6.55;;;3.20;;
44480;SDS011;30184;42.018;23.670;2022-08-01T09:07:25;5.78;;;3.03;;
44480;SDS011;30184;42.018;23.670;2022-08-01T09:13:13;4.57;;;2.75;;
44480;SDS011;30184;42.018;23.670;2022-08-01T09:14:09;5.15;;;3.22;;
44480;SDS011;30184;42.018;23.670;2022-08-01T09:16:41;5.18;;;3.10;;
44480;SDS011;30184;42.018;23.670;2022-08-01T10:17:07;5.18;;;3.47;;
44480;SDS011;30184;42.018;23.670;2022-08-01T10:29:51;5.40;;;2.47;;
44480;SDS011;30184;42.018;23.670;2022-08-01T11:58:03;4.93;;;2.00;;
